createdAt,value
2022-09-14T00:01:24.039Z,88.6
2022-09-14T00:01:57.260Z,88.49
2022-09-14T00:02:57.192Z,88.46
2022-09-14T00:03:57.113Z,88.56
2022-09-14T00:04:57.128Z,88.66
2022-09-14T00:05:57.529Z,88.43
2022-09-14T00:06:57.395Z,88.46
2022-09-14T00:07:57.739Z,88.94
2022-09-14T00:08:57.698Z,89.07
2022-09-14T00:09:56.949Z,89.16
2022-09-14T00:10:57.156Z,89.04
2022-09-14T00:11:57.515Z,89.11
2022-09-14T00:12:56.981Z,88.83
2022-09-14T00:13:57.345Z,89.09
2022-09-14T00:14:57.575Z,88.74
2022-09-14T00:15:57.851Z,88.48
2022-09-14T00:16:57.130Z,89.26
2022-09-14T00:17:57.105Z,88.77
2022-09-14T00:18:57.104Z,88.82
2022-09-14T00:19:57.278Z,89
2022-09-14T00:20:57.102Z,89.2
2022-09-14T00:21:57.091Z,89.05
2022-09-14T00:22:57.101Z,89.36
2022-09-14T00:23:57.099Z,89.29
2022-09-14T00:24:57.137Z,88.96
2022-09-14T00:25:57.103Z,89.33
2022-09-14T00:26:57.104Z,88.87
2022-09-14T00:27:57.104Z,88.92
2022-09-14T00:28:57.150Z,88.92
2022-09-14T00:29:57.234Z,89.07
2022-09-14T00:30:57.095Z,88.98
2022-09-14T00:31:57.147Z,89.19
2022-09-14T00:32:57.079Z,89
2022-09-14T00:33:57.087Z,89.33
2022-09-14T00:34:57.100Z,89.47
2022-09-14T00:35:57.097Z,89.48
2022-09-14T00:36:57.130Z,88.96
2022-09-14T00:37:57.090Z,89.36
2022-09-14T00:38:57.329Z,89.17
2022-09-14T00:39:57.110Z,88.75
2022-09-14T00:40:57.279Z,89.28
2022-09-14T00:41:57.172Z,88.95
2022-09-14T00:42:57.418Z,89.53
2022-09-14T00:43:57.726Z,89.25
2022-09-14T00:44:57.415Z,89.22
2022-09-14T00:45:57.355Z,89.1
2022-09-14T00:46:57.622Z,89.01
2022-09-14T00:47:57.314Z,88.85
2022-09-14T00:48:57.560Z,88.82
2022-09-14T00:49:57.947Z,88.88
2022-09-14T00:50:57.617Z,88.73
2022-09-14T00:51:57.875Z,88.11
2022-09-14T00:52:57.135Z,88.26
2022-09-14T00:53:57.393Z,88.21
2022-09-14T00:54:57.228Z,88.46
2022-09-14T00:55:57.479Z,88.05
2022-09-14T00:56:57.772Z,88.06
2022-09-14T00:57:57.525Z,88
2022-09-14T00:58:57.559Z,88.12
2022-09-14T00:59:57.440Z,88.21
2022-09-14T01:00:57.492Z,88.08
2022-09-14T01:01:57.779Z,88.04
2022-09-14T01:02:57.456Z,88.12
2022-09-14T01:03:57.619Z,87.56
2022-09-14T01:04:57.099Z,87.69
2022-09-14T01:05:57.390Z,88.16
2022-09-14T01:06:57.093Z,88
2022-09-14T01:07:57.189Z,88.22
2022-09-14T01:08:57.222Z,88.2
2022-09-14T01:09:57.429Z,88.4
2022-09-14T01:10:57.119Z,87.83
2022-09-14T01:11:57.107Z,87.58
2022-09-14T01:12:57.441Z,87.09
2022-09-14T01:13:57.223Z,87.47
2022-09-14T01:14:57.197Z,86.94
2022-09-14T01:15:57.408Z,86.5
2022-09-14T01:16:57.270Z,86.85
2022-09-14T01:17:57.100Z,86.45
2022-09-14T01:18:57.191Z,86.58
2022-09-14T01:19:57.425Z,86.69
2022-09-14T01:20:57.121Z,86.5
2022-09-14T01:21:57.110Z,86.59
2022-09-14T01:22:57.108Z,86.98
2022-09-14T01:23:57.222Z,87.23
2022-09-14T01:24:57.107Z,86.86
2022-09-14T01:25:57.108Z,86.36
2022-09-14T01:26:57.107Z,86.74
2022-09-14T01:27:57.110Z,86.35
2022-09-14T01:28:57.122Z,85.8
2022-09-14T01:29:57.092Z,85.86
2022-09-14T01:30:57.118Z,86.16
2022-09-14T01:31:57.145Z,86.08
2022-09-14T01:32:57.245Z,86.28
2022-09-14T01:33:57.102Z,86.22
2022-09-14T01:34:57.103Z,86.27
2022-09-14T01:35:57.101Z,86.3
2022-09-14T01:36:57.106Z,86.2
2022-09-14T01:37:57.103Z,86.24
2022-09-14T01:38:57.090Z,86.75
2022-09-14T01:39:57.150Z,86.78
2022-09-14T01:40:57.104Z,86.65
2022-09-14T01:41:57.113Z,86.82
2022-09-14T01:42:57.105Z,86.75
2022-09-14T01:43:57.097Z,86.69
2022-09-14T01:44:57.112Z,86.25
2022-09-14T01:45:57.150Z,85.89
2022-09-14T01:46:57.102Z,86.24
2022-09-14T01:47:57.095Z,86.16
2022-09-14T01:48:57.109Z,86.04
2022-09-14T01:49:57.112Z,86.14
2022-09-14T01:50:57.097Z,85.93
2022-09-14T01:51:57.101Z,86.57
2022-09-14T01:52:57.118Z,86.49
2022-09-14T01:53:57.101Z,86.74
2022-09-14T01:54:57.159Z,86.66
2022-09-14T01:55:57.108Z,86.74
2022-09-14T01:56:57.218Z,86.9
2022-09-14T01:57:57.099Z,87.2
2022-09-14T01:58:57.091Z,87.03
2022-09-14T01:59:57.108Z,86.83
2022-09-14T02:00:57.192Z,87.06
2022-09-14T02:01:57.138Z,87.13
2022-09-14T02:02:57.113Z,87.23
2022-09-14T02:03:57.112Z,87.14
2022-09-14T02:04:57.114Z,86.86
2022-09-14T02:05:57.235Z,87.03
2022-09-14T02:06:57.107Z,87.05
2022-09-14T02:07:57.124Z,87.26
2022-09-14T02:08:57.103Z,87.35
2022-09-14T02:09:57.095Z,87.31
2022-09-14T02:10:57.091Z,87.12
2022-09-14T02:11:57.094Z,87.05
2022-09-14T02:12:57.097Z,87.06
2022-09-14T02:13:57.087Z,86.66
2022-09-14T02:14:57.107Z,86.59
2022-09-14T02:15:57.176Z,86.66
2022-09-14T02:16:57.110Z,86.7
2022-09-14T02:17:57.111Z,86.37
2022-09-14T02:18:57.260Z,86.6
2022-09-14T02:19:57.114Z,86.74
2022-09-14T02:20:57.099Z,86.88
2022-09-14T02:21:57.089Z,87.23
2022-09-14T02:22:57.100Z,86.92
2022-09-14T02:23:57.097Z,87.08
2022-09-14T02:24:57.078Z,87.68
2022-09-14T02:25:57.119Z,87.92
2022-09-14T02:26:57.305Z,88.06
2022-09-14T02:27:57.429Z,88.35
2022-09-14T02:28:57.173Z,88.62
2022-09-14T02:29:57.222Z,88.68
2022-09-14T02:30:58.513Z,89.75
2022-09-14T02:31:57.508Z,89.5
2022-09-14T02:32:57.298Z,90.45
2022-09-14T02:33:57.511Z,89.95
2022-09-14T02:34:57.481Z,90.42
2022-09-14T02:35:57.701Z,90.99
2022-09-14T02:36:58.060Z,90.6
2022-09-14T02:37:57.611Z,90.84
2022-09-14T02:38:57.109Z,89.42
2022-09-14T02:39:57.278Z,89.69
2022-09-14T02:40:57.099Z,90.49
2022-09-14T02:41:57.100Z,91.18
2022-09-14T02:42:57.100Z,90.44
2022-09-14T02:43:57.092Z,90.4
2022-09-14T02:44:57.140Z,90.88
2022-09-14T02:45:57.109Z,90.75
2022-09-14T02:46:57.199Z,90.85
2022-09-14T02:47:57.115Z,90.83
2022-09-14T02:48:57.108Z,90.5
2022-09-14T02:49:57.134Z,90.68
2022-09-14T02:50:57.244Z,90.93
2022-09-14T02:51:57.099Z,91.24
2022-09-14T02:52:57.095Z,91.37
2022-09-14T02:53:57.104Z,91.31
2022-09-14T02:54:57.127Z,90.75
2022-09-14T02:55:57.094Z,90.99
2022-09-14T02:56:57.099Z,90.84
2022-09-14T02:57:57.096Z,91.4
2022-09-14T02:58:57.099Z,90.83
2022-09-14T02:59:57.155Z,90.56
2022-09-14T03:00:57.157Z,90.79
2022-09-14T03:01:57.169Z,91.24
2022-09-14T03:02:57.246Z,91.5
2022-09-14T03:03:57.110Z,91.89
2022-09-14T03:04:57.107Z,91.54
2022-09-14T03:05:57.094Z,91.42
2022-09-14T03:06:57.105Z,91.68
2022-09-14T03:07:57.108Z,92.02
2022-09-14T03:08:57.092Z,92.09
2022-09-14T03:09:57.105Z,92.54
2022-09-14T03:10:57.095Z,92.76
2022-09-14T03:11:57.105Z,91.76
2022-09-14T03:12:57.103Z,92.3
2022-09-14T03:13:57.119Z,92.38
2022-09-14T03:14:57.095Z,92.84
2022-09-14T03:15:57.146Z,93.07
2022-09-14T03:16:57.095Z,92.83
2022-09-14T03:17:57.087Z,94.29
2022-09-14T03:18:57.094Z,94.96
2022-09-14T03:19:57.128Z,95.37
2022-09-14T03:20:57.154Z,95.23
2022-09-14T03:21:57.324Z,95.22
2022-09-14T03:22:57.850Z,95.38
2022-09-14T03:23:57.606Z,95.69
2022-09-14T03:24:57.107Z,95.47
2022-09-14T03:25:57.206Z,97.37
2022-09-14T03:26:57.687Z,96.99
2022-09-14T03:27:56.967Z,97.75
2022-09-14T03:28:57.382Z,96.75
2022-09-14T03:29:57.559Z,97.88
2022-09-14T03:30:57.155Z,97.5
2022-09-14T03:31:57.103Z,98.66
2022-09-14T03:32:57.089Z,99.75
2022-09-14T03:33:57.218Z,99.71
2022-09-14T03:34:57.246Z,100
2022-09-14T03:35:57.116Z,100
2022-09-14T03:36:57.096Z,100
2022-09-14T03:37:57.089Z,100
2022-09-14T03:38:57.119Z,100
2022-09-14T03:39:57.132Z,100
2022-09-14T03:40:57.132Z,100
2022-09-14T03:41:57.108Z,100
2022-09-14T03:42:57.147Z,100
2022-09-14T03:43:57.192Z,100
2022-09-14T03:44:57.222Z,100
2022-09-14T03:45:57.128Z,100
2022-09-14T03:46:57.144Z,100
2022-09-14T03:47:57.107Z,100
2022-09-14T03:48:57.189Z,100
2022-09-14T03:49:57.124Z,100
2022-09-14T03:50:57.101Z,100
2022-09-14T03:52:00.227Z,100
2022-09-14T03:52:57.482Z,100
2022-09-14T03:53:57.231Z,100
2022-09-14T03:54:57.069Z,100
2022-09-14T03:55:57.434Z,100
2022-09-14T03:56:57.535Z,100
2022-09-14T03:57:57.959Z,100
2022-09-14T03:58:57.386Z,100
2022-09-14T03:59:57.843Z,100
2022-09-14T04:00:57.100Z,100
2022-09-14T04:01:57.136Z,100
2022-09-14T04:02:57.172Z,100
2022-09-14T04:03:57.079Z,100
2022-09-14T04:04:57.225Z,100
2022-09-14T04:05:57.091Z,100
2022-09-14T04:06:57.101Z,100
2022-09-14T04:07:57.106Z,100
2022-09-14T04:08:57.205Z,100
2022-09-14T04:09:57.107Z,100
2022-09-14T04:10:57.097Z,100
2022-09-14T04:11:57.218Z,100
2022-09-14T04:12:57.519Z,100
2022-09-14T04:13:57.277Z,100
2022-09-14T04:14:57.156Z,100
2022-09-14T04:15:57.319Z,100
2022-09-14T04:16:57.522Z,100
2022-09-14T04:17:57.918Z,100
2022-09-14T04:18:57.325Z,100
2022-09-14T04:19:57.556Z,100
2022-09-14T04:20:57.182Z,100
2022-09-14T04:21:57.439Z,100
2022-09-14T04:22:57.248Z,100
2022-09-14T04:24:14.463Z,100
2022-09-14T04:24:57.258Z,100
2022-09-14T04:25:57.121Z,100
2022-09-14T04:26:57.334Z,100
2022-09-14T04:28:19.493Z,100
2022-09-14T04:28:57.096Z,100
2022-09-14T04:29:57.151Z,100
2022-09-14T04:30:57.608Z,100
2022-09-14T04:31:57.185Z,100
2022-09-14T04:32:57.130Z,100
2022-09-14T04:33:57.428Z,100
2022-09-14T04:34:57.101Z,100
2022-09-14T04:35:57.094Z,100
2022-09-14T04:36:57.121Z,100
2022-09-14T04:37:57.123Z,100
2022-09-14T04:38:57.118Z,100
2022-09-14T04:39:57.154Z,100
2022-09-14T04:40:57.101Z,100
2022-09-14T04:41:57.122Z,100
2022-09-14T04:42:57.113Z,100
2022-09-14T04:43:57.167Z,100
2022-09-14T04:44:57.117Z,100
2022-09-14T04:45:57.109Z,100
2022-09-14T04:46:57.126Z,100
2022-09-14T04:47:57.100Z,100
2022-09-14T04:48:57.114Z,100
2022-09-14T04:49:57.130Z,100
2022-09-14T04:50:57.213Z,100
2022-09-14T04:51:57.114Z,100
2022-09-14T04:52:57.092Z,100
2022-09-14T04:53:57.100Z,100
2022-09-14T04:54:57.112Z,100
2022-09-14T04:55:57.106Z,100
2022-09-14T04:56:57.101Z,100
2022-09-14T04:57:57.159Z,100
2022-09-14T04:58:57.110Z,100
2022-09-14T04:59:57.126Z,100
2022-09-14T05:00:57.099Z,100
2022-09-14T05:01:57.204Z,100
2022-09-14T05:02:57.191Z,100
2022-09-14T05:03:57.339Z,100
2022-09-14T05:04:57.098Z,100
2022-09-14T05:05:57.089Z,100
2022-09-14T05:06:57.102Z,100
2022-09-14T05:07:57.451Z,100
2022-09-14T05:08:57.473Z,100
2022-09-14T05:09:57.456Z,100
2022-09-14T05:10:57.493Z,100
2022-09-14T05:11:57.489Z,100
2022-09-14T05:12:57.497Z,100
2022-09-14T05:13:57.502Z,100
2022-09-14T05:14:57.498Z,100
2022-09-14T05:15:57.522Z,100
2022-09-14T05:16:57.505Z,100
2022-09-14T05:17:57.469Z,100
2022-09-14T05:18:57.499Z,100
2022-09-14T05:19:57.497Z,100
2022-09-14T05:20:57.503Z,100
2022-09-14T05:21:57.491Z,100
2022-09-14T05:22:57.493Z,100
2022-09-14T05:23:57.499Z,100
2022-09-14T05:24:57.611Z,100
2022-09-14T05:25:57.499Z,100
2022-09-14T05:27:02.277Z,100
2022-09-14T05:27:57.505Z,100
2022-09-14T05:28:57.494Z,100
2022-09-14T05:29:57.509Z,100
2022-09-14T05:30:57.717Z,100
2022-09-14T05:31:57.527Z,100
2022-09-14T05:32:58.493Z,100
2022-09-14T05:33:57.506Z,100
2022-09-14T05:34:57.531Z,100
2022-09-14T05:35:57.588Z,100
2022-09-14T05:36:57.529Z,100
2022-09-14T05:37:57.620Z,100
2022-09-14T05:38:57.534Z,100
2022-09-14T05:39:57.567Z,100
2022-09-14T05:40:57.506Z,100
2022-09-14T05:41:57.498Z,100
2022-09-14T05:42:57.497Z,100
2022-09-14T05:43:57.497Z,100
2022-09-14T05:44:57.516Z,100
2022-09-14T05:45:57.821Z,100
2022-09-14T05:46:57.609Z,100
2022-09-14T05:47:57.296Z,100
2022-09-14T05:48:57.306Z,100
2022-09-14T05:49:57.529Z,100
2022-09-14T05:50:57.714Z,100
2022-09-14T05:51:57.847Z,100
2022-09-14T05:52:57.405Z,100
2022-09-14T05:53:57.096Z,100
2022-09-14T05:54:57.332Z,100
2022-09-14T05:55:57.107Z,100
2022-09-14T05:56:57.104Z,100
2022-09-14T05:57:57.213Z,100
2022-09-14T05:58:57.104Z,100
2022-09-14T05:59:57.126Z,100
2022-09-14T06:00:57.125Z,100
2022-09-14T06:01:57.161Z,100
2022-09-14T06:02:57.097Z,100
2022-09-14T06:03:57.105Z,100
2022-09-14T06:04:57.120Z,100
2022-09-14T06:05:57.095Z,100
2022-09-14T06:07:18.216Z,100
2022-09-14T06:07:57.124Z,100
2022-09-14T06:08:57.199Z,100
2022-09-14T06:09:57.171Z,100
2022-09-14T06:10:57.108Z,100
2022-09-14T06:11:57.104Z,100
2022-09-14T06:12:57.091Z,100
2022-09-14T06:13:57.091Z,100
2022-09-14T06:14:57.104Z,100
2022-09-14T06:15:57.104Z,100
2022-09-14T06:16:57.106Z,100
2022-09-14T06:17:57.119Z,100
2022-09-14T06:18:57.109Z,100
2022-09-14T06:19:59.140Z,100
2022-09-14T06:20:57.106Z,100
2022-09-14T06:21:57.117Z,100
2022-09-14T06:22:57.110Z,100
2022-09-14T06:23:57.094Z,100
2022-09-14T06:24:57.103Z,100
2022-09-14T06:25:57.106Z,100
2022-09-14T06:26:57.097Z,100
2022-09-14T06:27:57.107Z,100
2022-09-14T06:28:57.104Z,100
2022-09-14T06:29:57.108Z,100
2022-09-14T06:30:57.223Z,100
2022-09-14T06:31:57.107Z,100
2022-09-14T06:32:57.145Z,100
2022-09-14T06:33:57.083Z,100
2022-09-14T06:34:57.143Z,100
2022-09-14T06:35:57.210Z,100
2022-09-14T06:36:57.430Z,100
2022-09-14T06:37:57.392Z,100
2022-09-14T06:38:56.803Z,100
2022-09-14T06:39:57.148Z,100
2022-09-14T06:40:57.421Z,100
2022-09-14T06:41:57.671Z,100
2022-09-14T06:42:57.007Z,100
2022-09-14T06:43:57.499Z,100
2022-09-14T06:44:58.012Z,100
2022-09-14T06:45:57.104Z,100
2022-09-14T06:46:57.100Z,100
2022-09-14T06:47:57.100Z,100
2022-09-14T06:48:57.108Z,100
2022-09-14T06:49:57.118Z,100
2022-09-14T06:50:57.109Z,100
2022-09-14T06:51:57.113Z,100
2022-09-14T06:52:57.099Z,100
2022-09-14T06:53:57.112Z,100
2022-09-14T06:54:57.276Z,100
2022-09-14T06:55:57.095Z,100
2022-09-14T06:56:57.105Z,100
2022-09-14T06:57:57.106Z,100
2022-09-14T06:58:57.103Z,100
2022-09-14T06:59:57.130Z,100
2022-09-14T07:00:57.102Z,100
2022-09-14T07:01:57.109Z,100
2022-09-14T07:02:57.166Z,100
2022-09-14T07:03:57.109Z,100
2022-09-14T07:04:57.128Z,100
2022-09-14T07:05:57.112Z,100
2022-09-14T07:06:57.094Z,100
2022-09-14T07:07:57.090Z,100
2022-09-14T07:08:57.103Z,100
2022-09-14T07:09:57.170Z,100
2022-09-14T07:10:57.098Z,100
2022-09-14T07:11:57.099Z,100
2022-09-14T07:12:57.109Z,100
2022-09-14T07:13:57.138Z,100
2022-09-14T07:14:57.110Z,100
2022-09-14T07:15:57.129Z,100
2022-09-14T07:16:57.113Z,100
2022-09-14T07:17:57.209Z,100
2022-09-14T07:18:57.246Z,100
2022-09-14T07:19:57.169Z,100
2022-09-14T07:20:57.097Z,100
2022-09-14T07:21:57.334Z,100
2022-09-14T07:22:57.080Z,100
2022-09-14T07:23:57.091Z,100
2022-09-14T07:24:57.211Z,100
2022-09-14T07:25:57.669Z,100
2022-09-14T07:26:57.388Z,100
2022-09-14T07:27:57.140Z,100
2022-09-14T07:28:57.403Z,100
2022-09-14T07:29:57.685Z,100
2022-09-14T07:31:00.173Z,100
2022-09-14T07:31:57.088Z,100
2022-09-14T07:32:57.400Z,100
2022-09-14T07:33:57.362Z,100
2022-09-14T07:34:57.105Z,100
2022-09-14T07:35:57.256Z,100
2022-09-14T07:36:57.098Z,100
2022-09-14T07:37:57.207Z,100
2022-09-14T07:38:57.139Z,100
2022-09-14T07:39:57.492Z,100
2022-09-14T07:40:57.081Z,100
2022-09-14T07:41:57.353Z,100
2022-09-14T07:43:00.230Z,100
2022-09-14T07:43:57.098Z,100
2022-09-14T07:44:57.192Z,100
2022-09-14T07:45:57.147Z,100
2022-09-14T07:46:57.177Z,100
2022-09-14T07:47:57.109Z,100
2022-09-14T07:48:57.382Z,100
2022-09-14T07:49:57.133Z,100
2022-09-14T07:50:57.106Z,100
2022-09-14T07:51:57.109Z,100
2022-09-14T07:52:57.101Z,100
2022-09-14T07:53:57.175Z,100
2022-09-14T07:54:57.130Z,100
2022-09-14T07:55:57.099Z,100
2022-09-14T07:56:57.096Z,100
2022-09-14T07:57:58.110Z,100
2022-09-14T07:59:57.134Z,100
2022-09-14T08:00:57.163Z,100
2022-09-14T08:01:57.163Z,100
2022-09-14T08:02:57.137Z,100
2022-09-14T08:03:57.103Z,100
2022-09-14T08:04:57.147Z,100
2022-09-14T08:05:57.202Z,100
2022-09-14T08:06:57.117Z,100
2022-09-14T08:07:57.100Z,100
2022-09-14T08:08:57.101Z,100
2022-09-14T08:09:57.120Z,100
2022-09-14T08:10:57.100Z,100
2022-09-14T08:11:57.100Z,100
2022-09-14T08:12:57.108Z,100
2022-09-14T08:13:57.130Z,100
2022-09-14T08:14:57.132Z,100
2022-09-14T08:15:57.118Z,100
2022-09-14T08:16:57.116Z,100
2022-09-14T08:17:57.122Z,100
2022-09-14T08:18:57.090Z,100
2022-09-14T08:19:57.156Z,100
2022-09-14T08:20:57.094Z,100
2022-09-14T08:21:57.121Z,100
2022-09-14T08:22:57.109Z,100
2022-09-14T08:23:57.226Z,100
2022-09-14T08:24:57.121Z,100
2022-09-14T08:25:57.102Z,100
2022-09-14T08:26:57.127Z,100
2022-09-14T08:27:57.101Z,100
2022-09-14T08:28:57.130Z,100
2022-09-14T08:29:57.098Z,100
2022-09-14T08:30:57.092Z,100
2022-09-14T08:31:57.122Z,100
2022-09-14T08:33:03.087Z,100
2022-09-14T08:33:57.197Z,100
2022-09-14T08:34:57.103Z,100
2022-09-14T08:36:00.115Z,100
2022-09-14T08:36:57.342Z,100
2022-09-14T08:37:57.493Z,100
2022-09-14T08:38:57.150Z,100
2022-09-14T08:39:57.614Z,100
2022-09-14T08:40:57.709Z,100
2022-09-14T08:41:57.519Z,100
2022-09-14T08:42:57.489Z,100
2022-09-14T08:43:57.753Z,100
2022-09-14T08:44:57.235Z,100
2022-09-14T08:45:57.533Z,100
2022-09-14T08:46:57.784Z,100
2022-09-14T08:47:58.112Z,100
2022-09-14T08:48:57.110Z,100
2022-09-14T08:49:57.303Z,100
2022-09-14T08:50:57.631Z,100
2022-09-14T08:51:57.801Z,100
2022-09-14T08:52:57.431Z,100
2022-09-14T08:53:57.333Z,100
2022-09-14T08:54:57.326Z,100
2022-09-14T08:55:57.547Z,100
2022-09-14T08:56:57.215Z,100
2022-09-14T08:57:57.561Z,100
2022-09-14T08:58:57.179Z,100
2022-09-14T08:59:57.452Z,100
2022-09-14T09:00:57.249Z,100
2022-09-14T09:01:57.441Z,100
2022-09-14T09:02:57.329Z,100
2022-09-14T09:03:57.087Z,100
2022-09-14T09:04:57.132Z,100
2022-09-14T09:05:57.203Z,100
2022-09-14T09:06:57.480Z,100
2022-09-14T09:07:57.138Z,100
2022-09-14T09:08:57.097Z,100
2022-09-14T09:09:57.390Z,100
2022-09-14T09:10:57.106Z,100
2022-09-14T09:11:57.115Z,100
2022-09-14T09:12:57.129Z,100
2022-09-14T09:13:57.101Z,100
2022-09-14T09:14:57.097Z,100
2022-09-14T09:15:57.130Z,100
2022-09-14T09:16:57.103Z,100
2022-09-14T09:17:57.125Z,100
2022-09-14T09:18:57.099Z,100
2022-09-14T09:19:57.219Z,100
2022-09-14T09:20:57.118Z,100
2022-09-14T09:21:57.240Z,100
2022-09-14T09:22:57.228Z,100
2022-09-14T09:23:57.129Z,100
2022-09-14T09:24:57.099Z,100
2022-09-14T09:25:57.094Z,100
2022-09-14T09:26:57.112Z,100
2022-09-14T09:27:57.117Z,100
2022-09-14T09:28:57.110Z,100
2022-09-14T09:29:57.109Z,100
2022-09-14T09:30:57.095Z,100
2022-09-14T09:31:57.145Z,100
2022-09-14T09:32:57.115Z,100
2022-09-14T09:33:57.110Z,100
2022-09-14T09:34:57.126Z,100
2022-09-14T09:35:57.099Z,100
2022-09-14T09:36:57.105Z,100
2022-09-14T09:37:57.098Z,100
2022-09-14T09:38:57.827Z,100
2022-09-14T09:39:57.132Z,100
2022-09-14T09:40:57.104Z,100
2022-09-14T09:41:57.100Z,100
2022-09-14T09:42:57.113Z,100
2022-09-14T09:43:57.099Z,100
2022-09-14T09:45:03.817Z,100
2022-09-14T09:45:57.111Z,100
2022-09-14T09:46:57.187Z,100
2022-09-14T09:47:57.115Z,100
2022-09-14T09:48:57.098Z,100
2022-09-14T09:49:57.101Z,100
2022-09-14T09:50:57.289Z,100
2022-09-14T09:51:57.332Z,100
2022-09-14T09:52:57.636Z,100
2022-09-14T09:53:57.682Z,100
2022-09-14T09:54:56.899Z,100
2022-09-14T09:55:57.378Z,100
2022-09-14T09:56:57.685Z,100
2022-09-14T09:57:57.158Z,100
2022-09-14T09:58:57.332Z,100
2022-09-14T09:59:57.644Z,100
2022-09-14T10:00:57.204Z,100
2022-09-14T10:01:57.126Z,100
2022-09-14T10:02:57.106Z,100
2022-09-14T10:03:57.126Z,100
2022-09-14T10:04:57.109Z,100
2022-09-14T10:05:57.112Z,100
2022-09-14T10:06:57.132Z,100
2022-09-14T10:07:57.111Z,100
2022-09-14T10:08:57.143Z,100
2022-09-14T10:09:57.100Z,100
2022-09-14T10:10:57.100Z,100
2022-09-14T10:11:57.114Z,100
2022-09-14T10:12:57.102Z,100
2022-09-14T10:13:57.104Z,100
2022-09-14T10:14:57.091Z,100
2022-09-14T10:15:57.183Z,100
2022-09-14T10:16:57.104Z,100
2022-09-14T10:17:57.108Z,100
2022-09-14T10:18:57.137Z,100
2022-09-14T10:19:57.114Z,100
2022-09-14T10:20:57.141Z,100
2022-09-14T10:21:57.094Z,100
2022-09-14T10:22:57.099Z,100
2022-09-14T10:23:57.092Z,100
2022-09-14T10:24:57.099Z,100
2022-09-14T10:25:57.124Z,100
2022-09-14T10:26:57.111Z,100
2022-09-14T10:27:57.104Z,100
2022-09-14T10:28:57.123Z,100
2022-09-14T10:29:57.119Z,100
2022-09-14T10:30:57.154Z,100
2022-09-14T10:31:57.112Z,100
2022-09-14T10:32:57.113Z,100
2022-09-14T10:33:57.082Z,100
2022-09-14T10:34:57.208Z,100
2022-09-14T10:35:57.106Z,100
2022-09-14T10:36:57.087Z,100
2022-09-14T10:37:57.182Z,100
2022-09-14T10:38:57.069Z,100
2022-09-14T10:39:57.150Z,100
2022-09-14T10:40:57.126Z,100
2022-09-14T10:41:57.362Z,100
2022-09-14T10:42:57.098Z,100
2022-09-14T10:43:57.226Z,100
2022-09-14T10:44:57.311Z,100
2022-09-14T10:45:57.542Z,100
2022-09-14T10:46:59.327Z,100
2022-09-14T10:47:57.382Z,100
2022-09-14T10:48:57.103Z,100
2022-09-14T10:49:57.099Z,100
2022-09-14T10:50:57.189Z,100
2022-09-14T10:51:57.615Z,100
2022-09-14T10:52:57.631Z,100
2022-09-14T10:53:57.094Z,100
2022-09-14T10:54:57.311Z,100
2022-09-14T10:55:57.122Z,100
2022-09-14T10:56:57.280Z,100
2022-09-14T10:57:57.121Z,100
2022-09-14T10:58:57.111Z,100
2022-09-14T10:59:57.163Z,100
2022-09-14T11:00:57.104Z,100
2022-09-14T11:01:57.246Z,100
2022-09-14T11:02:57.197Z,100
2022-09-14T11:03:57.160Z,100
2022-09-14T11:04:57.109Z,100
2022-09-14T11:05:57.103Z,100
2022-09-14T11:06:57.092Z,100
2022-09-14T11:07:57.095Z,100
2022-09-14T11:08:57.133Z,100
2022-09-14T11:09:57.091Z,100
2022-09-14T11:10:57.088Z,100
2022-09-14T11:11:57.110Z,100
2022-09-14T11:12:57.098Z,100
2022-09-14T11:13:57.131Z,100
2022-09-14T11:14:57.114Z,100
2022-09-14T11:15:57.170Z,100
2022-09-14T11:16:57.109Z,100
2022-09-14T11:17:57.107Z,100
2022-09-14T11:18:57.119Z,100
2022-09-14T11:19:57.119Z,100
2022-09-14T11:20:57.104Z,100
2022-09-14T11:21:57.198Z,100
2022-09-14T11:22:57.098Z,100
2022-09-14T11:23:57.171Z,100
2022-09-14T11:24:57.108Z,100
2022-09-14T11:25:57.108Z,100
2022-09-14T11:26:57.106Z,100
2022-09-14T11:27:57.101Z,100
2022-09-14T11:28:57.091Z,100
2022-09-14T11:29:57.131Z,100
2022-09-14T11:30:57.112Z,100
2022-09-14T11:32:20.179Z,100
2022-09-14T11:32:57.090Z,100
2022-09-14T11:33:57.114Z,100
2022-09-14T11:34:57.103Z,100
2022-09-14T11:35:57.104Z,100
2022-09-14T11:36:57.109Z,100
2022-09-14T11:37:57.133Z,100
2022-09-14T11:38:57.100Z,100
2022-09-14T11:39:57.209Z,100
2022-09-14T11:40:57.110Z,100
2022-09-14T11:41:57.115Z,100
2022-09-14T11:42:57.118Z,100
2022-09-14T11:43:57.073Z,100
2022-09-14T11:44:57.127Z,100
2022-09-14T11:45:57.469Z,100
2022-09-14T11:47:01.187Z,100
2022-09-14T11:47:57.409Z,100
2022-09-14T11:48:58.533Z,100
2022-09-14T11:49:57.621Z,100
2022-09-14T11:50:57.853Z,100
2022-09-14T11:51:57.539Z,100
2022-09-14T11:52:57.498Z,100
2022-09-14T11:53:57.777Z,100
2022-09-14T11:54:57.322Z,100
2022-09-14T11:55:57.754Z,100
2022-09-14T11:56:57.146Z,100
2022-09-14T11:57:57.445Z,100
2022-09-14T11:58:57.697Z,100
2022-09-14T11:59:57.113Z,100
2022-09-14T12:00:57.109Z,100
2022-09-14T12:01:57.114Z,100
2022-09-14T12:02:57.258Z,100
2022-09-14T12:03:57.590Z,100
2022-09-14T12:04:57.123Z,100
2022-09-14T12:05:57.385Z,100
2022-09-14T12:06:57.321Z,100
2022-09-14T12:07:57.112Z,100
2022-09-14T12:08:57.414Z,100
2022-09-14T12:09:57.219Z,100
2022-09-14T12:10:57.519Z,100
2022-09-14T12:11:57.272Z,100
2022-09-14T12:12:57.396Z,100
2022-09-14T12:13:57.640Z,100
2022-09-14T12:14:57.509Z,100
2022-09-14T12:15:57.469Z,100
2022-09-14T12:16:57.658Z,100
2022-09-14T12:17:57.302Z,100
2022-09-14T12:18:57.088Z,100
2022-09-14T12:19:57.080Z,100
2022-09-14T12:20:57.379Z,100
2022-09-14T12:21:57.511Z,100
2022-09-14T12:22:57.127Z,100
2022-09-14T12:23:57.279Z,100
2022-09-14T12:24:57.098Z,100
2022-09-14T12:25:57.116Z,100
2022-09-14T12:26:57.108Z,100
2022-09-14T12:27:57.140Z,100
2022-09-14T12:28:57.113Z,100
2022-09-14T12:29:57.148Z,100
2022-09-14T12:30:57.136Z,100
2022-09-14T12:31:57.093Z,100
2022-09-14T12:32:57.119Z,100
2022-09-14T12:33:57.100Z,100
2022-09-14T12:34:57.091Z,100
2022-09-14T12:35:57.110Z,100
2022-09-14T12:36:57.127Z,100
2022-09-14T12:37:57.184Z,100
2022-09-14T12:38:57.096Z,100
2022-09-14T12:39:57.238Z,100
2022-09-14T12:40:57.140Z,100
2022-09-14T12:41:57.102Z,100
2022-09-14T12:42:57.134Z,100
2022-09-14T12:43:57.108Z,100
2022-09-14T12:44:57.096Z,100
2022-09-14T12:45:57.114Z,100
2022-09-14T12:46:57.100Z,100
2022-09-14T12:47:57.142Z,100
2022-09-14T12:48:57.103Z,100
2022-09-14T12:49:57.108Z,100
2022-09-14T12:50:57.122Z,100
2022-09-14T12:51:57.097Z,100
2022-09-14T12:52:57.126Z,100
2022-09-14T12:53:57.118Z,100
2022-09-14T12:54:57.098Z,100
2022-09-14T12:55:57.104Z,100
2022-09-14T12:56:57.093Z,100
2022-09-14T12:57:57.117Z,100
2022-09-14T12:58:57.098Z,100
2022-09-14T12:59:57.114Z,100
2022-09-14T13:00:57.089Z,100
2022-09-14T13:01:57.242Z,100
2022-09-14T13:02:57.155Z,100
2022-09-14T13:03:57.118Z,100
2022-09-14T13:04:57.118Z,100
2022-09-14T13:05:57.116Z,100
2022-09-14T13:06:57.098Z,100
2022-09-14T13:07:57.105Z,100
2022-09-14T13:08:57.096Z,100
2022-09-14T13:09:57.136Z,100
2022-09-14T13:10:57.095Z,100
2022-09-14T13:11:57.101Z,100
2022-09-14T13:12:57.094Z,100
2022-09-14T13:13:57.101Z,100
2022-09-14T13:14:57.103Z,100
2022-09-14T13:15:57.258Z,100
2022-09-14T13:16:57.109Z,100
2022-09-14T13:17:57.114Z,100
2022-09-14T13:18:57.105Z,100
2022-09-14T13:19:57.114Z,100
2022-09-14T13:20:57.147Z,100
2022-09-14T13:21:57.095Z,100
2022-09-14T13:22:57.090Z,100
2022-09-14T13:23:57.091Z,100
2022-09-14T13:24:57.102Z,100
2022-09-14T13:25:57.106Z,100
2022-09-14T13:26:57.111Z,100
2022-09-14T13:27:57.104Z,100
2022-09-14T13:28:57.101Z,100
2022-09-14T13:29:57.131Z,100
2022-09-14T13:30:57.130Z,100
2022-09-14T13:32:03.833Z,100
2022-09-14T13:32:57.107Z,100
2022-09-14T13:33:57.103Z,100